Time;durP1;ratioP1;P1;durP2;ratioP2;P2;SDS_P1;SDS_P2;PMS_P1;PMS_P2;Temp;Humidity;BMP_temperature;BMP_pressure;BME280_temperature;BME280_humidity;BME280_pressure;Samples;Min_cycle;Max_cycle;Signal;HPM_P1;HPM_P2
2021/07/07 00:02:22;;;;;;;2.00;1.30;;;;;;;14.22;100.00;95791.19;5032068;28;20429;-74
2021/07/07 00:04:50;;;;;;;2.13;1.50;;;;;;;14.15;100.00;95788.22;5032942;28;20462;-73
2021/07/07 00:07:16;;;;;;;2.03;1.42;;;;;;;14.24;100.00;95779.72;5031455;28;20434;-74
2021/07/07 00:09:41;;;;;;;1.50;1.30;;;;;;;14.29;100.00;95784.56;5032932;28;20427;-74
2021/07/07 00:12:07;;;;;;;3.60;1.40;;;;;;;14.40;100.00;95776.75;5032773;28;20797;-74
2021/07/07 00:14:33;;;;;;;2.58;1.25;;;;;;;14.53;100.00;95771.44;5032744;28;20422;-74
2021/07/07 00:16:58;;;;;;;1.90;1.10;;;;;;;14.65;100.00;95773.09;5031242;28;20419;-74
2021/07/07 00:19:23;;;;;;;1.75;1.20;;;;;;;14.71;100.00;95771.75;5032889;28;20427;-74
2021/07/07 00:21:57;;;;;;;1.70;1.20;;;;;;;14.72;100.00;95771.66;5031448;28;20832;-73
2021/07/07 00:24:23;;;;;;;1.43;1.00;;;;;;;14.73;100.00;95775.09;5032614;28;20422;-74
2021/07/07 00:26:48;;;;;;;1.93;1.30;;;;;;;14.79;100.00;95773.75;5032464;28;20415;-74
2021/07/07 00:29:13;;;;;;;1.87;1.23;;;;;;;14.85;100.00;95774.09;5032545;28;20415;-73
2021/07/07 00:31:39;;;;;;;1.85;1.42;;;;;;;14.92;100.00;95766.63;5031142;28;20426;-73
2021/07/07 00:34:04;;;;;;;2.00;1.80;;;;;;;14.82;100.00;95771.75;5032353;28;20529;-74
2021/07/07 00:36:30;;;;;;;2.10;1.80;;;;;;;14.90;100.00;95765.91;5032314;28;20415;-73
2021/07/07 00:38:57;;;;;;;4.50;1.90;;;;;;;14.96;100.00;95766.25;5031215;28;20509;-74
2021/07/07 00:41:22;;;;;;;3.83;1.70;;;;;;;14.99;100.00;95767.78;5032313;28;20402;-74
2021/07/07 00:43:48;;;;;;;9.40;1.90;;;;;;;14.98;100.00;95751.31;5032114;28;20758;-74
2021/07/07 00:46:14;;;;;;;3.60;1.50;;;;;;;14.99;100.00;95754.75;5032001;28;20415;-73
2021/07/07 00:48:39;;;;;;;6.03;2.17;;;;;;;14.82;100.00;95766.53;5032182;28;20940;-74
2021/07/07 00:51:04;;;;;;;3.17;1.70;;;;;;;14.73;100.00;95762.88;5032046;28;20603;-74
2021/07/07 00:53:31;;;;;;;2.08;1.60;;;;;;;14.86;100.00;95760.09;5031939;28;20419;-74
2021/07/07 00:55:59;;;;;;;3.35;1.65;;;;;;;14.84;100.00;95769.84;5031826;28;20792;-74
2021/07/07 00:58:26;;;;;;;3.05;1.80;;;;;;;14.69;100.00;95766.69;5031988;28;20469;-73
2021/07/07 01:00:51;;;;;;;3.35;1.30;;;;;;;14.76;100.00;95761.81;5031950;28;20414;-72
2021/07/07 01:03:17;;;;;;;2.57;1.40;;;;;;;14.85;100.00;95768.06;5031906;28;20414;-73
2021/07/07 01:05:42;;;;;;;2.10;1.48;;;;;;;14.89;100.00;95765.09;5031773;28;20927;-73
2021/07/07 01:08:08;;;;;;;1.90;1.20;;;;;;;14.93;100.00;95768.28;5030755;28;20862;-73
2021/07/07 01:10:33;;;;;;;6.37;1.40;;;;;;;14.89;100.00;95759.03;5031775;28;20777;-73
2021/07/07 01:13:00;;;;;;;3.30;1.50;;;;;;;14.80;100.00;95749.38;5031973;28;20481;-73
2021/07/07 01:15:26;;;;;;;4.43;1.60;;;;;;;14.81;100.00;95751.03;5031514;28;20419;-73
2021/07/07 01:17:51;;;;;;;3.23;1.60;;;;;;;14.90;100.00;95748.47;5031673;28;20417;-73
2021/07/07 01:20:19;;;;;;;1.80;1.50;;;;;;;14.93;100.00;95757.84;5031601;28;20800;-73
2021/07/07 01:22:46;;;;;;;4.32;1.65;;;;;;;14.92;100.00;95762.25;5031649;28;20451;-73
2021/07/07 01:25:13;;;;;;;1.80;1.42;;;;;;;14.85;100.00;95765.47;5029940;28;20418;-73
2021/07/07 01:27:40;;;;;;;4.47;1.75;;;;;;;14.90;100.00;95766.72;5030306;28;20466;-73
2021/07/07 01:30:08;;;;;;;2.03;1.38;;;;;;;14.95;100.00;95775.03;5031477;28;20419;-73
2021/07/07 01:32:34;;;;;;;2.25;1.55;;;;;;;14.89;100.00;95766.88;5031272;28;20434;-73
2021/07/07 01:34:59;;;;;;;2.40;1.67;;;;;;;14.79;100.00;95779.81;5031275;28;20422;-73
2021/07/07 01:37:27;;;;;;;2.40;1.33;;;;;;;14.64;100.00;95783.63;5031079;28;20425;-73
2021/07/07 01:39:53;;;;;;;2.88;1.42;;;;;;;14.56;100.00;95781.63;5031409;28;20414;-73
2021/07/07 01:42:19;;;;;;;2.30;1.40;;;;;;;14.57;100.00;95787.66;5029987;28;20447;-73
2021/07/07 01:44:44;;;;;;;1.33;1.20;;;;;;;14.57;100.00;95785.06;5068629;23;20959;-73
2021/07/07 01:47:10;;;;;;;2.80;1.33;;;;;;;14.49;100.00;95775.19;5030848;28;20443;-73
2021/07/07 01:49:35;;;;;;;2.50;1.40;;;;;;;14.34;100.00;95772.00;5031199;28;20417;-73
2021/07/07 01:52:01;;;;;;;3.37;1.23;;;;;;;14.33;100.00;95772.97;5032024;28;20462;-73
2021/07/07 01:54:26;;;;;;;1.27;1.10;;;;;;;14.48;100.00;95781.38;5035606;28;20411;-73
2021/07/07 01:56:53;;;;;;;3.00;1.20;;;;;;;14.57;100.00;95780.66;5033654;28;20411;-73
2021/07/07 01:59:18;;;;;;;2.88;1.15;;;;;;;14.71;100.00;95763.94;5033225;28;20417;-73
2021/07/07 02:01:44;;;;;;;1.93;1.30;;;;;;;14.73;100.00;95762.06;5031765;28;20502;-73
2021/07/07 02:04:09;;;;;;;4.00;1.42;;;;;;;14.77;100.00;95766.06;5031602;28;20414;-73
2021/07/07 02:06:35;;;;;;;2.63;1.50;;;;;;;14.74;100.00;95772.34;5030579;28;20414;-73
2021/07/07 02:09:01;;;;;;;2.80;1.42;;;;;;;14.56;100.00;95781.63;5029799;28;20431;-73
2021/07/07 02:11:26;;;;;;;2.70;1.10;;;;;;;14.60;100.00;95782.22;5029438;28;20434;-73
2021/07/07 02:13:53;;;;;;;1.80;1.07;;;;;;;14.69;100.00;95771.06;5030620;28;20773;-73
2021/07/07 02:16:18;;;;;;;2.00;1.30;;;;;;;14.76;100.00;95761.81;5030253;28;20978;-73
2021/07/07 02:18:44;;;;;;;2.80;1.50;;;;;;;14.76;100.00;95762.63;5030707;28;20421;-74
2021/07/07 02:21:09;;;;;;;2.10;1.43;;;;;;;14.76;100.00;95773.06;5030490;28;20411;-74
2021/07/07 02:23:35;;;;;;;2.40;1.30;;;;;;;14.71;100.00;95777.81;5030695;28;20833;-73
2021/07/07 02:26:00;;;;;;;1.73;1.23;;;;;;;14.68;100.00;95774.59;5030394;28;20489;-73
2021/07/07 02:28:26;;;;;;;6.10;1.47;;;;;;;14.54;100.00;95782.72;5030521;28;20415;-73
2021/07/07 02:30:54;;;;;;;2.03;1.20;;;;;;;14.59;100.00;95786.59;5030427;28;20485;-74
2021/07/07 02:33:20;;;;;;;1.50;1.30;;;;;;;14.65;100.00;95785.31;5030641;28;20411;-74
2021/07/07 02:35:45;;;;;;;3.63;1.50;;;;;;;14.45;100.00;95781.59;5030296;28;20907;-74
2021/07/07 02:38:13;;;;;;;1.80;1.23;;;;;;;14.51;100.00;95792.41;5029396;28;20411;-74
2021/07/07 02:40:38;;;;;;;2.87;1.70;;;;;;;14.45;100.00;95776.38;5030582;28;20415;-74
2021/07/07 02:43:06;;;;;;;1.92;1.15;;;;;;;14.58;100.00;95769.31;5030569;28;20975;-74
2021/07/07 02:45:32;;;;;;;6.10;1.50;;;;;;;14.83;100.00;95755.16;5030112;28;20451;-74
2021/07/07 02:47:59;;;;;;;2.73;1.30;;;;;;;14.83;100.00;95738.66;5030379;28;20467;-74
2021/07/07 02:50:25;;;;;;;1.25;1.10;;;;;;;14.58;100.00;95727.59;5030338;28;20430;-74
2021/07/07 02:52:52;;;;;;;3.22;1.52;;;;;;;14.34;100.00;95751.16;5030398;28;20411;-74
2021/07/07 02:55:19;;;;;;;2.35;1.23;;;;;;;14.23;100.00;95770.22;5030164;28;20415;-74
2021/07/07 02:57:57;;;;;;;2.55;1.20;;;;;;;14.25;100.00;95791.78;5030223;28;20785;-74
2021/07/07 03:00:25;;;;;;;3.00;1.58;;;;;;;14.20;100.00;95796.53;5030375;28;20453;-74
2021/07/07 03:02:51;;;;;;;2.17;1.60;;;;;;;14.26;100.00;95801.25;5030337;28;20425;-74
2021/07/07 03:05:17;;;;;;;3.00;1.30;;;;;;;14.40;100.00;95802.00;5029967;28;20415;-73
2021/07/07 03:07:43;;;;;;;8.88;1.30;;;;;;;14.35;100.00;95810.16;5030209;28;20474;-73
2021/07/07 03:10:11;;;;;;;1.93;1.23;;;;;;;14.34;100.00;95810.25;5030155;28;20411;-73
2021/07/07 03:12:37;;;;;;;2.40;1.20;;;;;;;14.35;100.00;95804.09;5030067;28;20521;-73
2021/07/07 03:15:03;;;;;;;1.90;1.15;;;;;;;14.32;100.00;95810.41;5030054;28;20506;-73
2021/07/07 03:17:28;;;;;;;2.35;1.40;;;;;;;14.15;100.00;95806.47;5028913;28;20427;-73
2021/07/07 03:19:54;;;;;;;4.07;1.27;;;;;;;14.17;100.00;95807.19;5030330;28;20426;-73
2021/07/07 03:22:21;;;;;;;1.83;1.00;;;;;;;14.34;100.00;95802.44;5030159;28;20411;-73
2021/07/07 03:24:46;;;;;;;2.92;1.08;;;;;;;14.37;100.00;95812.63;5030058;28;20853;-74
2021/07/07 03:27:12;;;;;;;4.65;1.50;;;;;;;14.40;100.00;95813.22;5030031;28;20510;-74
2021/07/07 03:29:37;;;;;;;5.20;1.20;;;;;;;14.21;100.00;95819.03;5026217;28;20423;-74
2021/07/07 03:32:04;;;;;;;1.80;1.00;;;;;;;14.15;100.00;95813.44;5027456;28;20427;-74
2021/07/07 03:34:30;;;;;;;1.92;1.13;;;;;;;14.29;100.00;95801.03;5022056;28;20888;-74
2021/07/07 03:36:55;;;;;;;3.17;1.03;;;;;;;14.44;100.00;95792.97;5019207;28;20423;-74
2021/07/07 03:39:22;;;;;;;4.70;1.03;;;;;;;14.44;100.00;95785.97;5013586;28;20417;-74
2021/07/07 03:41:47;;;;;;;3.67;1.17;;;;;;;14.34;100.00;95787.63;5032252;28;20450;-74
2021/07/07 03:44:13;;;;;;;1.90;1.20;;;;;;;14.26;100.00;95784.81;5031983;28;20454;-74
2021/07/07 03:46:38;;;;;;;1.77;1.30;;;;;;;14.10;100.00;95782.56;5033107;28;20865;-74
2021/07/07 03:49:04;;;;;;;1.65;1.10;;;;;;;14.14;100.00;95768.34;5033227;28;20461;-74
2021/07/07 03:51:29;;;;;;;3.05;1.00;;;;;;;14.23;100.00;95764.19;5033205;28;20780;-74
2021/07/07 03:53:55;;;;;;;3.80;0.95;;;;;;;14.04;100.00;95770.81;5033103;28;20415;-74
2021/07/07 03:56:21;;;;;;;1.23;1.10;;;;;;;13.87;100.00;95779.09;5032892;28;20831;-74
2021/07/07 03:58:47;;;;;;;1.80;0.70;;;;;;;13.97;100.00;95766.19;5033182;28;20784;-74
2021/07/07 04:01:13;;;;;;;3.73;1.30;;;;;;;14.18;100.00;95788.00;5033040;28;20407;-74
2021/07/07 04:03:38;;;;;;;4.93;1.10;;;;;;;13.93;100.00;95820.28;5033008;28;20528;-74
2021/07/07 04:06:04;;;;;;;2.50;1.10;;;;;;;13.92;100.00;95842.06;5031407;28;20431;-73
2021/07/07 04:08:29;;;;;;;3.63;1.27;;;;;;;13.91;100.00;95861.25;5032918;28;20419;-73
2021/07/07 04:10:54;;;;;;;2.10;1.20;;;;;;;13.90;100.00;95867.38;5032749;28;20518;-73
2021/07/07 04:13:23;;;;;;;2.57;1.03;;;;;;;13.77;100.00;95885.69;5032936;28;20547;-73
2021/07/07 04:15:49;;;;;;;12.68;1.58;;;;;;;13.60;100.00;95880.03;5032537;28;20453;-73
2021/07/07 04:18:14;;;;;;;3.70;1.10;;;;;;;13.62;100.00;95866.00;5032657;28;20960;-73
2021/07/07 04:20:39;;;;;;;4.70;1.13;;;;;;;13.58;100.00;95850.72;5032604;28;20776;-73
2021/07/07 04:23:05;;;;;;;1.80;1.03;;;;;;;13.63;100.00;95843.41;5032597;28;20419;-73
2021/07/07 04:25:30;;;;;;;2.40;1.20;;;;;;;13.88;100.00;95837.22;5032387;28;20415;-73
2021/07/07 04:27:56;;;;;;;2.67;1.00;;;;;;;13.97;100.00;95826.91;5032506;28;20766;-73
2021/07/07 04:30:22;;;;;;;2.23;1.13;;;;;;;13.97;100.00;95826.91;5032540;28;20418;-73
2021/07/07 04:32:48;;;;;;;2.60;1.00;;;;;;;14.03;100.00;95817.81;5032273;28;20485;-73
2021/07/07 04:35:17;;;;;;;2.70;0.93;;;;;;;14.03;100.00;95815.22;5032007;28;20476;-73
2021/07/07 04:37:43;;;;;;;1.85;0.85;;;;;;;14.06;100.00;95812.38;5032393;28;20430;-73
2021/07/07 04:40:10;;;;;;;3.08;1.10;;;;;;;14.06;100.00;95809.78;5032122;28;20489;-73
2021/07/07 04:42:35;;;;;;;3.28;1.15;;;;;;;14.21;100.00;95811.22;5030931;28;20824;-74
2021/07/07 04:45:01;;;;;;;2.00;1.03;;;;;;;14.02;100.00;95829.19;5030979;28;20509;-74
2021/07/07 04:47:27;;;;;;;3.47;1.23;;;;;;;13.86;100.00;95846.88;5031936;28;20987;-74
2021/07/07 04:49:53;;;;;;;1.77;1.10;;;;;;;13.96;100.00;95861.72;5032280;28;20411;-73
2021/07/07 04:52:18;;;;;;;1.20;0.90;;;;;;;14.10;100.00;95855.47;5030112;28;20429;-73
2021/07/07 04:54:44;;;;;;;2.43;1.03;;;;;;;14.19;100.00;95844.34;5033065;28;20908;-73
2021/07/07 04:57:09;;;;;;;2.60;1.20;;;;;;;14.30;100.00;95846.13;5041802;28;20414;-73
2021/07/07 04:59:34;;;;;;;2.10;1.10;;;;;;;14.15;100.00;95855.13;5042572;28;20415;-73
2021/07/07 05:02:00;;;;;;;3.97;1.27;;;;;;;14.03;100.00;95855.09;5043427;28;20764;-73
2021/07/07 05:04:27;;;;;;;2.80;1.17;;;;;;;14.06;100.00;95851.44;5038061;28;20433;-73
2021/07/07 05:06:52;;;;;;;2.90;1.20;;;;;;;14.26;100.00;95853.38;5033407;28;20910;-73
2021/07/07 05:09:18;;;;;;;2.60;1.03;;;;;;;14.37;100.00;95860.34;5032302;28;20411;-73
2021/07/07 05:11:43;;;;;;;1.20;0.90;;;;;;;14.44;100.00;95858.13;5031849;28;20430;-74
2021/07/07 05:14:08;;;;;;;4.50;1.30;;;;;;;14.33;100.00;95855.50;5031647;28;20413;-73
2021/07/07 05:16:34;;;;;;;2.08;1.13;;;;;;;14.28;100.00;95866.28;5031234;28;20840;-73
2021/07/07 05:18:59;;;;;;;5.20;1.10;;;;;;;14.32;100.00;95872.91;5029130;28;20454;-75
2021/07/07 05:21:26;;;;;;;2.47;1.13;;;;;;;14.30;100.00;95869.59;5011437;28;20407;-75
2021/07/07 05:23:52;;;;;;;1.98;1.08;;;;;;;14.25;100.00;95866.50;5010448;28;20425;-73
2021/07/07 05:26:17;;;;;;;1.30;0.90;;;;;;;14.34;100.00;95868.41;5012176;28;20697;-75
2021/07/07 05:28:42;;;;;;;2.83;1.10;;;;;;;14.40;100.00;95856.69;5018145;28;20441;-74
2021/07/07 05:31:08;;;;;;;1.33;0.93;;;;;;;14.23;100.00;95890.06;5029874;28;21050;-73
2021/07/07 05:33:35;;;;;;;2.55;1.23;;;;;;;14.08;100.00;95906.00;5031200;28;20403;-74
2021/07/07 05:36:01;;;;;;;7.55;1.10;;;;;;;13.96;100.00;95905.97;5031000;28;20425;-74
2021/07/07 05:38:28;;;;;;;4.05;1.20;;;;;;;14.09;100.00;95892.03;5030060;28;20780;-74
2021/07/07 05:40:54;;;;;;;2.67;1.10;;;;;;;14.03;100.00;95893.34;5031222;28;20449;-74
2021/07/07 05:43:19;;;;;;;3.35;1.40;;;;;;;14.02;100.00;95902.09;5031246;28;20414;-74
2021/07/07 05:45:44;;;;;;;2.40;1.30;;;;;;;14.07;100.00;95902.59;5030898;28;20476;-73
2021/07/07 05:48:10;;;;;;;1.93;1.20;;;;;;;14.19;100.00;95903.44;5031340;28;20858;-73
2021/07/07 05:50:35;;;;;;;3.45;1.25;;;;;;;14.25;100.00;95896.00;5030210;28;20415;-73
2021/07/07 05:53:01;;;;;;;3.20;1.20;;;;;;;14.36;100.00;95896.97;5031043;28;20749;-73
2021/07/07 05:55:28;;;;;;;2.57;1.10;;;;;;;14.36;100.00;95887.38;5028062;28;20511;-73
2021/07/07 05:57:54;;;;;;;4.07;1.20;;;;;;;14.41;100.00;95874.81;5012157;28;20427;-73
2021/07/07 06:00:22;;;;;;;2.30;1.00;;;;;;;14.40;100.00;95870.56;5014332;28;20420;-73
2021/07/07 06:02:48;;;;;;;1.70;1.10;;;;;;;14.43;100.00;95880.75;5030347;28;20415;-69
2021/07/07 06:05:14;;;;;;;3.30;1.33;;;;;;;14.46;100.00;95871.84;5029859;28;20415;-72
2021/07/07 06:07:40;;;;;;;1.75;1.13;;;;;;;14.46;100.00;95877.91;5029453;28;20423;-73
2021/07/07 06:10:07;;;;;;;2.17;1.20;;;;;;;14.52;100.00;95885.28;5030578;28;21043;-74
2021/07/07 06:12:34;;;;;;;2.63;1.23;;;;;;;14.58;100.00;95885.78;5035061;28;20421;-72
2021/07/07 06:15:00;;;;;;;1.98;1.10;;;;;;;14.63;100.00;95881.84;5047505;28;20421;-72
2021/07/07 06:17:25;;;;;;;4.70;1.42;;;;;;;14.59;100.00;95879.59;5050097;28;20410;-73
2021/07/07 06:19:52;;;;;;;2.55;1.20;;;;;;;14.52;100.00;95887.06;5032023;28;20896;-73
2021/07/07 06:22:17;;;;;;;2.08;1.30;;;;;;;14.35;100.00;95892.69;5042648;28;20418;-74
2021/07/07 06:24:43;;;;;;;1.80;1.40;;;;;;;14.28;100.00;95906.19;5030784;28;20805;-73
2021/07/07 06:27:08;;;;;;;4.05;2.05;;;;;;;14.19;100.00;95896.44;5030206;28;20987;-73
2021/07/07 06:29:35;;;;;;;4.03;1.90;;;;;;;14.19;100.00;95916.47;5028981;28;20433;-73
2021/07/07 06:32:00;;;;;;;4.50;1.95;;;;;;;14.06;100.00;95924.38;5010217;28;20428;-74
2021/07/07 06:34:26;;;;;;;2.70;1.70;;;;;;;14.04;100.00;95936.66;5037242;28;20771;-73
2021/07/07 06:36:51;;;;;;;8.67;2.10;;;;;;;13.96;100.00;95942.44;5049614;28;20413;-73
2021/07/07 06:39:17;;;;;;;8.00;2.60;;;;;;;13.98;100.00;95950.16;5050017;28;20962;-73
2021/07/07 06:41:42;;;;;;;4.93;2.27;;;;;;;13.91;100.00;95947.16;5043108;28;20425;-73
2021/07/07 06:44:07;;;;;;;3.90;2.00;;;;;;;14.02;100.00;95951.59;5030427;28;20422;-73
2021/07/07 06:46:35;;;;;;;4.87;1.70;;;;;;;13.94;100.00;95946.94;5045893;28;20436;-72
2021/07/07 06:49:01;;;;;;;3.00;1.65;;;;;;;13.97;100.00;95956.28;5042423;28;20430;-72
2021/07/07 06:51:27;;;;;;;3.60;1.80;;;;;;;14.04;100.00;95966.13;5040634;28;20775;-72
2021/07/07 06:53:52;;;;;;;2.80;1.70;;;;;;;14.13;100.00;95980.28;5049723;28;20463;-73
2021/07/07 06:56:18;;;;;;;3.37;1.57;;;;;;;14.18;100.00;95980.75;5032336;28;20410;-73
2021/07/07 06:58:43;;;;;;;3.10;1.63;;;;;;;14.36;100.00;95982.94;5032853;28;20502;-74
2021/07/07 07:01:09;;;;;;;4.57;1.50;;;;;;;14.49;100.00;95978.47;5030601;28;20803;-73
2021/07/07 07:03:35;;;;;;;3.80;1.90;;;;;;;14.56;100.00;95971.88;5033548;28;20908;-75
2021/07/07 07:06:01;;;;;;;3.97;1.70;;;;;;;14.62;100.00;95971.44;5030946;28;20781;-74
2021/07/07 07:08:26;;;;;;;4.17;1.80;;;;;;;14.65;100.00;95962.56;5032979;28;20410;-73
2021/07/07 07:10:52;;;;;;;2.87;1.60;;;;;;;14.70;100.00;95963.84;5034896;28;20472;-73
2021/07/07 07:13:17;;;;;;;5.00;1.60;;;;;;;14.73;100.00;95966.22;5033741;28;20415;-74
2021/07/07 07:15:47;;;;;;;2.97;1.63;;;;;;;14.72;100.00;95968.94;5032569;28;20423;-74
2021/07/07 07:18:12;;;;;;;3.43;1.63;;;;;;;14.63;100.00;95978.28;5033541;28;20912;-74
2021/07/07 07:20:39;;;;;;;4.83;1.60;;;;;;;14.68;100.00;95983.16;5015316;28;20420;-74
2021/07/07 07:23:04;;;;;;;4.13;1.60;;;;;;;14.70;100.00;95978.66;5014516;28;20417;-73
2021/07/07 07:25:30;;;;;;;5.00;1.63;;;;;;;14.82;100.00;95979.50;5032868;28;20431;-74
2021/07/07 07:27:55;;;;;;;10.23;2.13;;;;;;;14.87;100.00;95977.38;5034030;28;20458;-75
2021/07/07 07:30:21;;;;;;;5.13;1.90;;;;;;;14.96;100.00;95980.09;5033617;28;20502;-75
2021/07/07 07:32:49;;;;;;;3.17;1.63;;;;;;;15.04;100.00;95974.28;5033173;28;20792;-75
2021/07/07 07:35:15;;;;;;;3.60;1.75;;;;;;;15.13;100.00;95977.97;5033052;28;20421;-75
2021/07/07 07:40:39;;;;;;;3.55;2.03;;;;;;;15.27;100.00;95969.91;5024225;28;20896;-72
2021/07/07 07:43:06;;;;;;;5.25;2.22;;;;;;;15.36;100.00;95963.97;5033295;28;20430;-72
2021/07/07 07:45:33;;;;;;;2.53;1.88;;;;;;;15.22;100.00;95962.44;5047455;23;20431;-73
2021/07/07 07:47:59;;;;;;;3.60;1.67;;;;;;;15.27;100.00;95975.13;5032916;28;20729;-72
2021/07/07 07:50:25;;;;;;;3.17;1.75;;;;;;;15.38;100.00;95982.09;5032828;28;20450;-73
2021/07/07 07:52:52;;;;;;;2.80;1.80;;;;;;;15.38;100.00;95980.31;5033258;28;20896;-73
2021/07/07 07:55:19;;;;;;;6.00;2.20;;;;;;;15.28;100.00;95986.38;5032648;28;20888;-73
2021/07/07 07:57:44;;;;;;;6.43;2.00;;;;;;;15.31;100.00;95991.34;5031815;28;20414;-73
2021/07/07 08:00:12;;;;;;;3.00;1.90;;;;;;;15.49;100.00;95997.75;5032949;28;20473;-73
2021/07/07 08:02:37;;;;;;;7.50;2.03;;;;;;;15.59;100.00;96003.91;5033187;28;20505;-73
2021/07/07 08:05:03;;;;;;;2.17;1.43;;;;;;;15.76;100.00;96002.63;5032767;28;20781;-73
2021/07/07 08:07:29;;;;;;;3.80;1.80;;;;;;;15.90;100.00;96006.72;5032764;28;20875;-73
2021/07/07 08:09:55;;;;;;;5.43;1.80;;;;;;;15.90;100.00;96004.09;5032874;28;20469;-73
2021/07/07 08:12:21;;;;;;;6.88;2.03;;;;;;;16.05;100.00;96004.66;5032500;28;20427;-73
2021/07/07 08:14:50;;;;;;;2.53;1.50;;;;;;;15.92;100.00;96002.22;5030617;28;20446;-73
2021/07/07 08:17:15;;;;;;;3.40;1.60;;;;;;;15.82;100.00;96003.91;5032498;28;20415;-73
2021/07/07 08:19:41;;;;;;;2.83;1.30;;;;;;;15.97;100.00;96003.47;5021768;28;20417;-73
2021/07/07 08:22:06;;;;;;;2.60;1.30;;;;;;;15.92;100.00;95999.59;5012445;28;20409;-73
2021/07/07 08:24:32;;;;;;;3.25;1.42;;;;;;;15.91;100.00;96004.00;5012779;28;20409;-73
2021/07/07 08:26:59;;;;;;;6.80;1.60;;;;;;;15.68;100.00;96003.22;5011041;28;20423;-73
2021/07/07 08:29:25;;;;;;;2.65;1.20;;;;;;;15.84;100.00;95995.00;5012640;28;20925;-73
2021/07/07 08:31:50;;;;;;;5.50;1.50;;;;;;;16.03;100.00;96002.19;5012507;28;20519;-73
2021/07/07 08:34:16;;;;;;;3.78;1.65;;;;;;;16.18;100.00;96008.75;5012608;28;20456;-73
2021/07/07 08:36:41;;;;;;;1.87;1.20;;;;;;;16.49;100.00;96023.72;5010975;28;20416;-72
2021/07/07 08:39:06;;;;;;;4.00;1.40;;;;;;;16.91;100.00;96027.22;5012448;28;20739;-73
2021/07/07 08:41:33;;;;;;;3.35;1.52;;;;;;;16.99;100.00;96018.72;5012277;28;20412;-73
2021/07/07 08:43:59;;;;;;;3.43;1.47;;;;;;;16.80;100.00;96008.97;5012216;28;20471;-74
2021/07/07 08:46:25;;;;;;;3.57;1.37;;;;;;;16.34;100.00;96007.50;5012169;28;20467;-74
2021/07/07 08:48:51;;;;;;;3.80;1.60;;;;;;;16.43;100.00;96018.06;5010707;28;20432;-74
2021/07/07 08:51:16;;;;;;;5.03;1.48;;;;;;;16.29;100.00;96020.97;5012200;28;20434;-74
2021/07/07 08:53:44;;;;;;;3.63;1.50;;;;;;;16.54;100.00;96011.94;5010915;28;20469;-74
2021/07/07 08:56:09;;;;;;;3.17;1.63;;;;;;;16.90;100.00;96012.47;5011950;28;20464;-74
2021/07/07 08:58:35;;;;;;;5.43;1.95;;;;;;;17.05;100.00;96011.16;5012106;28;20853;-74
2021/07/07 09:01:02;;;;;;;1.88;1.30;;;;;;;16.84;100.00;96013.00;5012061;28;20778;-74
2021/07/07 09:03:28;;;;;;;4.25;1.40;;;;;;;16.88;100.00;96012.59;5012195;28;20826;-74
2021/07/07 09:05:55;;;;;;;8.83;1.60;;;;;;;17.29;100.00;96012.66;5011642;28;20412;-74
2021/07/07 09:08:26;;;;;;;3.15;1.63;;;;;;;17.51;100.00;96022.94;5011886;28;20934;-74
2021/07/07 09:10:51;;;;;;;4.85;1.50;;;;;;;17.47;97.59;96028.59;5010649;28;20413;-74
2021/07/07 09:13:24;;;;;;;4.47;1.20;;;;;;;17.58;93.09;96039.78;5011747;28;20447;-74
2021/07/07 09:15:49;;;;;;;6.20;1.63;;;;;;;17.73;96.16;96047.28;5011667;28;20823;-74
2021/07/07 09:18:21;;;;;;;6.32;1.73;;;;;;;17.74;92.90;96041.88;5011742;28;20417;-74
2021/07/07 09:20:47;;;;;;;2.95;1.25;;;;;;;17.58;92.23;96047.63;5031038;28;20415;-74
2021/07/07 09:23:16;;;;;;;3.45;1.50;;;;;;;17.78;91.39;96048.56;5031277;28;20469;-74
2021/07/07 09:25:50;;;;;;;3.47;1.38;;;;;;;17.94;91.35;96055.88;5030274;28;20422;-74
2021/07/07 09:28:18;;;;;;;2.40;1.30;;;;;;;17.95;87.04;96049.72;5031340;28;20926;-74
2021/07/07 09:30:44;;;;;;;4.45;1.25;;;;;;;17.76;85.21;96055.72;5031311;28;20411;-73
2021/07/07 09:33:10;;;;;;;3.92;1.50;;;;;;;17.84;87.43;96058.50;5029994;28;20427;-73
2021/07/07 09:35:37;;;;;;;3.17;1.00;;;;;;;17.83;90.29;96056.81;5030908;28;20812;-74
2021/07/07 09:38:05;;;;;;;3.88;1.15;;;;;;;17.67;88.54;96066.97;5031240;28;20469;-73
2021/07/07 09:40:31;;;;;;;2.17;1.13;;;;;;;17.70;92.66;96071.13;5031094;28;20494;-74
2021/07/07 09:42:56;;;;;;;4.60;1.30;;;;;;;17.75;94.67;96066.28;5031144;28;20510;-74
2021/07/07 09:45:22;;;;;;;4.97;1.20;;;;;;;17.66;93.34;96068.75;5030964;28;20773;-74
2021/07/07 09:47:48;;;;;;;4.17;1.50;;;;;;;17.53;94.00;96065.53;5031175;28;20418;-74
2021/07/07 09:50:15;;;;;;;4.25;1.13;;;;;;;17.31;90.34;96060.47;5015487;28;20460;-73
2021/07/07 09:52:43;;;;;;;5.43;1.52;;;;;;;17.11;89.82;96062.97;5011323;28;20425;-74
2021/07/07 09:55:10;;;;;;;2.38;1.35;;;;;;;17.30;90.79;96074.53;5010900;28;20894;-74
2021/07/07 09:57:44;;;;;;;4.43;1.60;;;;;;;17.24;90.00;96069.78;5010983;28;20954;-73
2021/07/07 10:00:12;;;;;;;3.08;1.30;;;;;;;17.29;87.52;96070.25;5011207;28;20431;-73
2021/07/07 10:02:38;;;;;;;2.70;1.13;;;;;;;17.47;90.60;96060.84;5010845;28;20467;-73
2021/07/07 10:05:08;;;;;;;3.33;1.20;;;;;;;17.46;87.18;96063.56;5010460;28;20471;-73
2021/07/07 10:07:34;;;;;;;5.35;1.23;;;;;;;17.44;84.88;96062.88;5011162;28;20914;-73
2021/07/07 10:10:01;;;;;;;3.47;1.33;;;;;;;17.61;87.45;96068.34;5010982;28;20425;-73
2021/07/07 10:12:29;;;;;;;3.08;1.50;;;;;;;17.73;88.86;96071.69;5010903;28;20435;-73
2021/07/07 10:14:55;;;;;;;3.85;1.50;;;;;;;17.78;86.71;96063.44;5009509;28;20431;-73
2021/07/07 10:17:21;;;;;;;2.60;1.17;;;;;;;17.94;88.19;96065.56;5009556;28;20853;-73
2021/07/07 10:19:47;;;;;;;4.18;1.40;;;;;;;17.88;85.65;96069.56;5010877;28;20494;-73
2021/07/07 10:22:13;;;;;;;2.78;1.40;;;;;;;18.02;86.74;96061.31;5011275;28;20425;-73
2021/07/07 10:24:39;;;;;;;5.80;1.60;;;;;;;18.11;84.18;96060.47;5010672;28;20416;-73
2021/07/07 10:27:08;;;;;;;2.15;1.15;;;;;;;18.35;83.07;96059.25;5008994;28;20429;-73
2021/07/07 10:29:35;;;;;;;2.65;1.33;;;;;;;18.43;80.99;96059.44;5020111;28;20419;-73
2021/07/07 10:32:01;;;;;;;2.53;1.48;;;;;;;18.71;79.95;96052.53;5021607;28;20440;-74
2021/07/07 10:34:28;;;;;;;5.82;1.80;;;;;;;18.88;82.24;96061.50;5016399;28;20508;-73
2021/07/07 10:36:54;;;;;;;2.80;1.63;;;;;;;18.67;79.09;96053.75;5019705;28;20415;-74
2021/07/07 10:39:20;;;;;;;4.43;1.75;;;;;;;18.80;79.64;96069.22;5032949;28;20421;-73
2021/07/07 10:41:51;;;;;;;5.38;1.80;;;;;;;18.89;78.72;96073.66;5034126;28;20489;-73
2021/07/07 10:44:53;;;;;;;3.13;1.55;;;;;;;18.95;77.38;96074.88;5029179;28;20440;-73
2021/07/07 10:47:34;;;;;;;3.17;1.40;;;;;;;19.20;79.61;96069.03;5013965;28;20783;-73
2021/07/07 10:50:01;;;;;;;6.35;1.42;;;;;;;18.96;80.95;96072.13;5026607;28;20959;-73
2021/07/07 10:52:35;;;;;;;7.30;2.10;;;;;;;18.44;79.63;96071.56;5033699;28;20437;-73
2021/07/07 10:55:05;;;;;;;7.95;1.88;;;;;;;18.37;81.65;96078.31;5033724;28;20472;-73
2021/07/07 10:57:37;;;;;;;3.13;1.60;;;;;;;18.25;80.98;96072.38;5033591;28;20438;-73
2021/07/07 11:00:30;;;;;;;4.72;1.50;;;;;;;18.43;82.41;96079.56;5033937;28;20504;-77
2021/07/07 11:03:40;;;;;;;4.40;1.60;;;;;;;18.66;81.74;96059.97;5033986;28;20438;-79
2021/07/07 11:06:26;;;;;;;4.15;1.60;;;;;;;18.80;80.12;96061.34;5034978;28;20430;-78
2021/07/07 11:09:09;;;;;;;5.40;1.77;;;;;;;18.80;79.24;96064.84;5013698;28;20420;-78
2021/07/07 11:11:36;;;;;;;5.30;1.63;;;;;;;19.19;80.16;96059.50;5013301;28;20424;-78
2021/07/07 11:14:14;;;;;;;2.88;1.40;;;;;;;19.27;78.80;96058.78;5021494;28;20415;-78
2021/07/07 11:16:53;;;;;;;2.67;1.48;;;;;;;19.83;81.53;96061.34;5033715;28;20438;-78
2021/07/07 11:19:38;;;;;;;6.17;1.60;;;;;;;20.01;81.37;96057.94;5034108;28;20430;-78
2021/07/07 11:22:04;;;;;;;2.35;1.38;;;;;;;20.34;72.29;96066.19;5032336;28;20422;-78
2021/07/07 11:24:29;;;;;;;6.18;1.60;;;;;;;19.99;72.37;96058.09;5032485;28;20434;-79
2021/07/07 11:26:55;;;;;;;5.30;1.60;;;;;;;19.89;76.07;96053.88;5032588;28;20415;-78
2021/07/07 11:29:21;;;;;;;4.33;1.40;;;;;;;20.13;76.32;96069.06;5032442;28;20489;-78